Time;durP1;ratioP1;P1;durP2;ratioP2;P2;SDS_P1;SDS_P2;PMS_P1;PMS_P2;Temp;Humidity;BMP_temperature;BMP_pressure;BME280_temperature;BME280_humidity;BME280_pressure;Samples;Min_cycle;Max_cycle;Signal;HPM_P1;HPM_P2
2023/08/23 00:04:10;;;;;;;15.10;4.37;;;15.10;99.90;;;;;;1941603;72;27555;-85
2023/08/23 00:06:59;;;;;;;19.70;4.20;;;15.10;99.90;;;;;;1902589;75;25283;-85
2023/08/23 00:09:49;;;;;;;20.53;4.47;;;15.20;99.90;;;;;;1890462;75;25213;-84
2023/08/23 00:12:39;;;;;;;14.67;3.93;;;15.30;99.90;;;;;;1886074;75;25173;-85
2023/08/23 00:15:28;;;;;;;16.97;5.77;;;15.40;99.90;;;;;;1892331;75;25240;-85
2023/08/23 00:21:03;;;;;;;18.03;6.27;;;15.40;99.90;;;;;;1940737;72;27072;-84
2023/08/23 00:23:52;;;;;;;24.27;6.63;;;15.40;99.90;;;;;;1897515;75;25356;-84
2023/08/23 00:26:41;;;;;;;15.00;5.13;;;15.40;99.90;;;;;;1902067;74;25292;-84
2023/08/23 00:29:31;;;;;;;18.23;4.60;;;15.40;99.90;;;;;;1889250;75;25951;-84
2023/08/23 00:32:20;;;;;;;14.60;4.73;;;15.40;99.90;;;;;;1897190;75;25335;-84
2023/08/23 00:35:10;;;;;;;13.93;4.13;;;15.40;99.90;;;;;;1902420;75;25225;-86
2023/08/23 00:37:59;;;;;;;16.10;4.17;;;15.30;99.90;;;;;;1886985;75;25283;-86
2023/08/23 00:40:48;;;;;;;23.63;5.60;;;15.30;99.90;;;;;;1896549;75;25265;-86
2023/08/23 00:43:38;;;;;;;20.70;6.87;;;15.30;99.90;;;;;;1852409;76;25219;-86
2023/08/23 00:46:29;;;;;;;22.87;5.67;;;15.30;99.90;;;;;;1850639;76;25189;-86
2023/08/23 00:49:18;;;;;;;21.10;5.20;;;15.20;99.90;;;;;;1865735;76;25232;-86
2023/08/23 00:52:08;;;;;;;17.87;5.70;;;15.20;99.90;;;;;;1862844;76;25185;-86
2023/08/23 00:54:58;;;;;;;21.53;7.60;;;15.20;99.90;;;;;;1872197;76;25230;-85
2023/08/23 00:57:48;;;;;;;21.63;9.13;;;15.20;99.90;;;;;;1866649;76;25585;-85
2023/08/23 01:00:37;;;;;;;27.10;9.53;;;15.20;99.90;;;;;;1876524;76;25289;-84
2023/08/23 01:03:26;;;;;;;35.00;12.67;;;15.20;99.90;;;;;;1876343;76;25690;-84
2023/08/23 01:06:25;;;;;;;26.80;9.67;;;15.20;99.90;;;;;;1856740;76;25263;-84
2023/08/23 01:12:04;;;;;;;34.10;12.20;;;15.10;99.90;;;;;;1930105;72;27130;-84
2023/08/23 01:14:56;;;;;;;44.70;15.67;;;15.10;99.90;;;;;;1819089;78;25718;-84
2023/08/23 01:20:37;;;;;;;32.57;11.87;;;15.10;99.90;;;;;;1943011;72;27433;-84
2023/08/23 01:23:27;;;;;;;35.23;11.17;;;15.10;99.90;;;;;;1938867;72;25207;-84
2023/08/23 01:28:58;;;;;;;35.93;11.80;;;15.10;99.90;;;;;;1935081;72;27036;-85
2023/08/23 01:31:50;;;;;;;37.30;11.43;;;15.20;99.90;;;;;;1902575;74;25253;-85
2023/08/23 01:37:23;;;;;;;36.77;13.77;;;15.30;99.90;;;;;;1927430;72;27522;-85
2023/08/23 01:40:13;;;;;;;47.03;12.47;;;15.30;99.90;;;;;;1908649;74;25840;-85
2023/08/23 01:43:05;;;;;;;37.53;12.17;;;15.40;99.90;;;;;;1886265;75;25324;-85
2023/08/23 01:45:53;;;;;;;33.73;10.37;;;15.30;99.90;;;;;;1902081;75;25206;-85
2023/08/23 01:48:42;;;;;;;34.50;9.87;;;15.20;99.90;;;;;;1899234;75;25260;-85
2023/08/23 01:51:32;;;;;;;24.97;9.33;;;15.20;99.90;;;;;;1905894;75;25224;-84
2023/08/23 01:54:21;;;;;;;21.47;8.43;;;15.30;99.90;;;;;;1893545;75;25236;-84
2023/08/23 01:57:11;;;;;;;30.90;8.63;;;15.30;99.90;;;;;;1905189;75;25162;-85
2023/08/23 02:00:01;;;;;;;18.43;6.50;;;15.30;99.90;;;;;;1880333;75;25227;-84
2023/08/23 02:02:50;;;;;;;25.30;7.13;;;15.30;99.90;;;;;;1886931;75;25638;-85
2023/08/23 02:05:40;;;;;;;20.13;6.37;;;15.30;99.90;;;;;;1892189;75;25302;-85
2023/08/23 02:08:29;;;;;;;22.27;5.83;;;15.30;99.90;;;;;;1881894;75;25725;-85
2023/08/23 02:14:15;;;;;;;23.57;4.80;;;15.20;99.90;;;;;;1949250;72;26981;-84
2023/08/23 02:17:06;;;;;;;16.63;4.47;;;15.20;99.90;;;;;;1942928;73;25751;-84
2023/08/23 02:19:54;;;;;;;17.47;4.77;;;15.20;99.90;;;;;;1911374;73;25769;-84
2023/08/23 02:22:43;;;;;;;17.47;5.20;;;15.40;99.90;;;;;;1934162;73;25244;-84
2023/08/23 02:25:32;;;;;;;18.23;5.10;;;15.40;99.90;;;;;;1929792;72;25348;-84
2023/08/23 02:28:21;;;;;;;17.60;4.73;;;15.40;99.90;;;;;;1926540;73;25816;-84
2023/08/23 02:31:11;;;;;;;14.57;5.27;;;15.50;99.90;;;;;;1940315;73;25248;-84
2023/08/23 02:33:59;;;;;;;25.57;6.83;;;15.40;99.90;;;;;;1935132;73;25300;-84
2023/08/23 02:36:48;;;;;;;15.93;5.57;;;15.40;99.90;;;;;;1931544;72;26512;-84
2023/08/23 02:39:38;;;;;;;17.00;4.57;;;15.40;99.90;;;;;;1938467;73;25270;-84
2023/08/23 02:42:27;;;;;;;21.67;4.77;;;15.40;99.90;;;;;;1929533;73;25772;-84
2023/08/23 02:47:59;;;;;;;11.97;3.83;;;15.50;99.90;;;;;;1931207;72;28325;-85
2023/08/23 02:50:48;;;;;;;17.10;4.13;;;15.50;99.90;;;;;;1913044;74;25270;-84
2023/08/23 02:53:38;;;;;;;17.27;4.30;;;15.40;99.90;;;;;;1895595;74;25298;-84
2023/08/23 02:56:27;;;;;;;15.50;4.10;;;15.50;99.90;;;;;;1860724;76;26304;-85
2023/08/23 03:02:01;;;;;;;13.30;3.83;;;15.60;99.90;;;;;;1952144;72;26923;-85
2023/08/23 03:04:52;;;;;;;17.87;4.50;;;15.60;99.90;;;;;;1930792;72;25210;-85
2023/08/23 03:07:42;;;;;;;17.53;4.10;;;15.80;99.90;;;;;;1947084;72;25262;-85
2023/08/23 03:10:31;;;;;;;15.70;3.70;;;15.70;99.90;;;;;;1926562;72;25202;-85
2023/08/23 03:13:21;;;;;;;13.67;4.17;;;15.70;99.90;;;;;;1943379;73;25173;-85
2023/08/23 03:19:14;;;;;;;17.30;3.93;;;15.80;99.90;;;;;;1924121;73;27032;-85
2023/08/23 03:22:03;;;;;;;15.27;3.90;;;15.80;99.90;;;;;;1892985;73;25217;-85
2023/08/23 03:24:53;;;;;;;11.83;3.67;;;15.80;99.90;;;;;;1908531;74;25290;-85
2023/08/23 03:27:42;;;;;;;12.93;4.13;;;15.80;99.90;;;;;;1905234;74;25676;-85
2023/08/23 03:30:32;;;;;;;14.20;4.07;;;15.80;99.90;;;;;;1897071;74;25210;-85
2023/08/23 03:33:21;;;;;;;14.27;3.97;;;15.80;99.90;;;;;;1901901;74;25209;-84
2023/08/23 03:36:10;;;;;;;18.27;4.03;;;15.80;99.90;;;;;;1913363;75;25280;-85
2023/08/23 03:41:48;;;;;;;21.20;4.27;;;15.80;99.90;;;;;;1923409;72;26945;-85
2023/08/23 03:47:52;;;;;;;18.27;4.00;;;15.90;99.90;;;;;;1960091;71;26804;-85
2023/08/23 03:53:22;;;;;;;11.13;3.57;;;15.90;99.90;;;;;;1931311;72;27515;-84
2023/08/23 03:56:11;;;;;;;17.47;3.67;;;15.90;99.90;;;;;;1909883;74;25928;-85
2023/08/23 03:59:00;;;;;;;16.57;4.13;;;15.90;99.90;;;;;;1920881;73;25298;-85
2023/08/23 04:01:49;;;;;;;18.50;3.73;;;15.90;99.90;;;;;;1914617;74;25226;-85
2023/08/23 04:04:39;;;;;;;15.13;3.40;;;15.90;99.90;;;;;;1918628;74;25306;-85
2023/08/23 04:07:28;;;;;;;17.63;3.73;;;15.90;99.90;;;;;;1908432;74;25320;-84
2023/08/23 04:10:18;;;;;;;16.00;3.80;;;15.90;99.90;;;;;;1907164;74;25279;-84
2023/08/23 04:13:10;;;;;;;18.50;3.30;;;16.00;99.90;;;;;;1908121;74;25266;-84
2023/08/23 04:16:00;;;;;;;16.50;3.80;;;16.10;99.90;;;;;;1911639;74;25626;-85
2023/08/23 04:18:51;;;;;;;12.80;3.33;;;16.10;99.90;;;;;;1913089;75;25216;-85
2023/08/23 04:21:40;;;;;;;13.53;3.70;;;16.10;99.90;;;;;;1888869;75;25577;-85
2023/08/23 04:24:30;;;;;;;17.47;3.67;;;16.10;99.90;;;;;;1914396;74;25260;-85
2023/08/23 04:27:19;;;;;;;13.00;4.00;;;16.10;99.90;;;;;;1884543;73;25277;-84
2023/08/23 04:30:12;;;;;;;17.40;3.90;;;16.10;99.90;;;;;;1915336;74;25259;-84
2023/08/23 04:33:01;;;;;;;19.97;3.80;;;16.20;99.90;;;;;;1915729;74;25255;-85
2023/08/23 04:41:16;;;;;;;10.40;3.13;;;16.10;99.90;;;;;;1931370;72;27460;-83
2023/08/23 04:44:08;;;;;;;16.37;4.07;;;16.20;99.90;;;;;;1859461;76;25237;-86
2023/08/23 04:46:57;;;;;;;17.53;3.90;;;16.20;99.90;;;;;;1890725;75;25173;-85
2023/08/23 04:49:46;;;;;;;17.83;3.60;;;16.20;99.90;;;;;;1877244;75;25200;-85
2023/08/23 04:52:36;;;;;;;12.80;3.83;;;16.30;99.90;;;;;;1831215;77;25282;-86
2023/08/23 04:55:24;;;;;;;13.17;3.27;;;16.30;99.90;;;;;;1877041;74;25213;-86
2023/08/23 04:58:13;;;;;;;14.57;3.63;;;16.30;99.90;;;;;;1837936;76;25287;-86
2023/08/23 05:03:52;;;;;;;14.17;3.20;;;16.30;99.90;;;;;;1941448;72;27662;-85
2023/08/23 05:06:40;;;;;;;21.90;3.57;;;16.30;99.90;;;;;;1923227;73;25654;-84
2023/08/23 05:09:30;;;;;;;16.43;3.27;;;16.20;99.90;;;;;;1921146;73;26004;-85
2023/08/23 05:12:20;;;;;;;17.37;4.00;;;16.20;99.90;;;;;;1916779;73;25711;-85
2023/08/23 05:15:11;;;;;;;26.53;3.70;;;16.20;99.90;;;;;;1922965;73;25864;-84
2023/08/23 05:18:02;;;;;;;17.90;3.77;;;16.30;99.90;;;;;;1931945;73;25209;-85
2023/08/23 05:23:47;;;;;;;14.73;3.57;;;16.30;99.90;;;;;;1962770;72;27046;-85
2023/08/23 05:29:17;;;;;;;12.00;3.63;;;16.40;99.90;;;;;;1931396;72;27008;-85
2023/08/23 05:32:06;;;;;;;22.20;4.30;;;16.40;99.90;;;;;;1905931;75;25412;-85
2023/08/23 05:34:56;;;;;;;21.93;3.70;;;16.50;99.90;;;;;;1888344;75;25269;-85
2023/08/23 05:37:45;;;;;;;15.10;3.80;;;16.50;99.90;;;;;;1887677;74;25283;-85
2023/08/23 05:40:35;;;;;;;11.77;3.33;;;16.50;99.90;;;;;;1907538;75;25322;-85
2023/08/23 05:43:24;;;;;;;9.87;3.23;;;16.60;99.90;;;;;;1881099;76;25809;-85
2023/08/23 05:46:13;;;;;;;17.60;2.93;;;16.50;99.90;;;;;;1864630;76;25231;-85
2023/08/23 05:49:02;;;;;;;14.33;3.23;;;16.50;99.90;;;;;;1884718;75;25164;-85
2023/08/23 05:51:52;;;;;;;16.33;3.90;;;16.50;99.90;;;;;;1869083;76;25271;-85
2023/08/23 05:54:42;;;;;;;8.37;3.27;;;16.60;99.90;;;;;;1856404;76;25170;-85
2023/08/23 05:57:32;;;;;;;18.27;3.53;;;16.60;99.90;;;;;;1869464;76;25269;-85
2023/08/23 06:03:02;;;;;;;16.93;3.90;;;16.70;99.90;;;;;;1926814;72;27050;-85
2023/08/23 06:08:32;;;;;;;16.20;3.80;;;16.70;99.90;;;;;;1955301;72;27109;-85
2023/08/23 06:11:21;;;;;;;15.30;3.20;;;16.70;99.90;;;;;;1934583;73;25242;-85
2023/08/23 06:14:20;;;;;;;13.17;3.53;;;16.80;99.90;;;;;;1916503;73;25299;-85
2023/08/23 06:17:09;;;;;;;14.50;3.27;;;16.90;99.90;;;;;;1917446;73;25728;-85
2023/08/23 06:19:59;;;;;;;14.07;3.53;;;16.90;99.90;;;;;;1930352;73;25223;-85
2023/08/23 06:22:48;;;;;;;13.67;3.30;;;16.90;99.90;;;;;;1925372;73;25295;-85
2023/08/23 06:25:38;;;;;;;11.53;3.43;;;16.90;99.90;;;;;;1922763;73;25344;-85
2023/08/23 06:28:29;;;;;;;13.43;3.20;;;17.00;99.90;;;;;;1926445;73;25329;-85
2023/08/23 06:31:21;;;;;;;14.53;3.27;;;16.90;99.90;;;;;;1926204;73;25183;-85
2023/08/23 06:34:10;;;;;;;15.53;3.30;;;16.90;99.90;;;;;;1918943;73;25319;-85
2023/08/23 06:36:59;;;;;;;16.77;3.30;;;17.10;99.90;;;;;;1927043;73;25301;-85
2023/08/23 06:42:29;;;;;;;9.07;3.40;;;17.10;99.90;;;;;;1921616;72;27417;-85
2023/08/23 06:45:18;;;;;;;14.90;3.27;;;17.20;99.90;;;;;;1877245;75;25224;-85
2023/08/23 06:48:08;;;;;;;14.70;3.40;;;17.20;99.90;;;;;;1840034;76;25724;-85
2023/08/23 06:53:37;;;;;;;10.77;3.00;;;17.30;99.90;;;;;;1942595;72;27076;-85
2023/08/23 06:56:26;;;;;;;10.57;2.70;;;17.40;99.90;;;;;;1863882;76;25365;-85
2023/08/23 06:59:15;;;;;;;10.13;3.13;;;17.50;99.90;;;;;;1821624;78;25325;-84
2023/08/23 07:02:04;;;;;;;9.23;2.80;;;17.50;99.90;;;;;;1902452;74;25714;-85
2023/08/23 07:04:55;;;;;;;14.50;3.00;;;17.60;99.90;;;;;;1867910;76;25244;-85
2023/08/23 07:07:44;;;;;;;13.13;3.20;;;17.70;99.90;;;;;;1849807;76;25271;-85
2023/08/23 07:10:33;;;;;;;10.93;2.97;;;17.90;99.90;;;;;;1898917;74;25225;-85
2023/08/23 07:13:22;;;;;;;14.73;3.23;;;17.90;99.90;;;;;;1873834;76;25238;-85
2023/08/23 07:16:11;;;;;;;14.97;3.30;;;17.90;99.90;;;;;;1823033;78;26767;-84
2023/08/23 07:19:02;;;;;;;8.20;2.70;;;18.10;99.90;;;;;;1888720;74;25219;-85
2023/08/23 07:21:52;;;;;;;8.33;2.70;;;18.20;99.90;;;;;;1884739;73;25218;-85
2023/08/23 07:24:41;;;;;;;11.03;2.80;;;18.10;99.90;;;;;;1907644;73;25609;-85
2023/08/23 07:27:30;;;;;;;7.90;2.73;;;18.00;99.90;;;;;;1883700;75;25727;-85
2023/08/23 07:33:04;;;;;;;9.57;2.73;;;18.00;99.90;;;;;;1939986;72;26950;-85
2023/08/23 07:38:39;;;;;;;10.23;2.60;;;18.10;99.90;;;;;;1944676;72;27093;-85
2023/08/23 07:41:29;;;;;;;7.77;2.77;;;18.20;99.90;;;;;;1897057;75;25744;-85
2023/08/23 07:47:00;;;;;;;6.50;2.40;;;18.20;99.90;;;;;;1937261;72;27128;-85
2023/08/23 07:49:51;;;;;;;10.67;2.63;;;18.40;99.90;;;;;;1886989;75;25243;-85
2023/08/23 07:52:42;;;;;;;10.67;2.87;;;18.50;99.90;;;;;;1897232;75;25271;-85
2023/08/23 07:58:24;;;;;;;10.17;2.90;;;18.70;99.90;;;;;;1947700;72;26922;-85
2023/08/23 08:01:13;;;;;;;11.77;3.00;;;18.70;99.90;;;;;;1935556;72;25288;-85
2023/08/23 08:04:02;;;;;;;18.10;3.27;;;18.80;99.90;;;;;;1936421;72;25694;-85
2023/08/23 08:09:37;;;;;;;7.67;2.83;;;18.90;99.90;;;;;;1941548;72;27052;-85
2023/08/23 08:12:26;;;;;;;10.47;3.10;;;18.90;99.90;;;;;;1920243;73;25838;-85
2023/08/23 08:15:16;;;;;;;9.53;2.63;;;19.00;99.90;;;;;;1921154;73;25213;-85
2023/08/23 08:18:06;;;;;;;8.53;2.33;;;18.90;99.90;;;;;;1916274;73;25236;-85
2023/08/23 08:20:56;;;;;;;12.63;2.80;;;19.00;99.90;;;;;;1916401;73;25260;-85
2023/08/23 08:23:46;;;;;;;10.30;2.33;;;19.10;99.90;;;;;;1926123;73;25800;-85
2023/08/23 08:26:38;;;;;;;8.17;2.50;;;18.90;99.90;;;;;;1929017;73;25214;-85
2023/08/23 08:29:27;;;;;;;9.13;2.40;;;18.90;99.90;;;;;;1923975;73;25205;-85
2023/08/23 08:32:16;;;;;;;6.37;2.50;;;19.00;99.90;;;;;;1925321;73;25758;-85
2023/08/23 08:35:06;;;;;;;7.77;2.57;;;19.20;99.90;;;;;;1931958;73;25174;-85
2023/08/23 08:37:55;;;;;;;13.83;2.33;;;19.30;99.90;;;;;;1917775;73;25328;-85
2023/08/23 08:40:45;;;;;;;4.13;2.10;;;20.00;99.90;;;;;;1918042;73;25314;-85
2023/08/23 08:43:35;;;;;;;5.47;2.30;;;20.20;99.90;;;;;;1906497;75;25724;-85
2023/08/23 08:46:24;;;;;;;10.93;2.50;;;20.10;99.90;;;;;;1904230;74;25179;-85
2023/08/23 08:49:12;;;;;;;6.57;2.10;;;19.70;99.90;;;;;;1885508;75;25235;-85
2023/08/23 08:52:03;;;;;;;8.20;2.17;;;19.70;99.90;;;;;;1909210;74;25725;-85
2023/08/23 08:54:54;;;;;;;7.43;2.40;;;20.00;99.90;;;;;;1905353;74;25340;-85
2023/08/23 09:00:28;;;;;;;9.73;2.73;;;20.10;99.90;;;;;;1927682;72;27051;-85
2023/08/23 09:05:58;;;;;;;8.20;2.53;;;19.90;99.90;;;;;;1935568;72;27048;-85
2023/08/23 09:08:47;;;;;;;8.70;2.60;;;19.60;99.90;;;;;;1898271;75;25190;-85
2023/08/23 09:11:36;;;;;;;9.13;2.53;;;19.60;99.90;;;;;;1903262;75;25274;-85
2023/08/23 09:14:27;;;;;;;10.87;2.90;;;19.40;99.90;;;;;;1885830;75;25272;-85
2023/08/23 09:17:16;;;;;;;10.33;2.60;;;19.40;99.90;;;;;;1902467;75;25222;-85
2023/08/23 09:20:09;;;;;;;8.60;2.57;;;19.70;99.90;;;;;;1891900;75;25317;-84
2023/08/23 09:22:59;;;;;;;4.07;2.30;;;19.70;99.90;;;;;;1902534;75;25207;-84
2023/08/23 09:25:48;;;;;;;13.00;2.70;;;19.70;99.90;;;;;;1899822;75;25243;-85
2023/08/23 09:28:38;;;;;;;10.80;2.30;;;19.70;99.90;;;;;;1898306;75;25164;-85
2023/08/23 09:31:28;;;;;;;9.07;2.47;;;19.90;99.90;;;;;;1895622;75;25166;-85
2023/08/23 09:34:18;;;;;;;6.10;2.20;;;19.90;99.90;;;;;;1890165;75;25216;-85
2023/08/23 09:37:10;;;;;;;7.43;2.37;;;20.00;99.90;;;;;;1896171;74;25214;-85
2023/08/23 09:43:20;;;;;;;8.20;2.43;;;20.50;99.90;;;;;;1977962;71;27065;-85
2023/08/23 09:46:12;;;;;;;13.47;2.60;;;20.40;99.90;;;;;;1966105;72;25288;-85
2023/08/23 09:51:40;;;;;;;8.93;2.20;;;20.50;99.90;;;;;;1939060;72;27735;-85
2023/08/23 09:57:14;;;;;;;6.13;2.33;;;20.80;99.90;;;;;;1963974;72;26934;-85
2023/08/23 10:00:06;;;;;;;7.57;1.90;;;20.80;99.90;;;;;;1887852;75;25246;-85
2023/08/23 10:02:57;;;;;;;5.70;1.83;;;20.90;99.90;;;;;;1893122;75;25228;-85
2023/08/23 10:05:48;;;;;;;5.27;1.70;;;21.30;99.90;;;;;;1875244;75;25739;-85
2023/08/23 10:08:37;;;;;;;6.47;1.90;;;21.40;99.90;;;;;;1874363;75;25242;-85
2023/08/23 10:11:28;;;;;;;6.80;1.70;;;21.60;99.90;;;;;;1924217;72;25214;-86
2023/08/23 10:17:01;;;;;;;6.57;1.73;;;22.00;99.90;;;;;;1950167;72;27035;-85
2023/08/23 10:19:50;;;;;;;5.67;1.67;;;21.40;99.90;;;;;;1919602;73;25278;-85
2023/08/23 10:22:40;;;;;;;6.73;1.63;;;21.40;99.90;;;;;;1922467;73;25233;-85
2023/08/23 10:28:16;;;;;;;6.53;1.83;;;21.70;99.90;;;;;;1930063;72;26897;-86
2023/08/23 10:33:55;;;;;;;3.67;1.57;;;21.80;99.90;;;;;;1942237;72;27123;-85
2023/08/23 10:36:45;;;;;;;7.70;1.50;;;21.90;99.90;;;;;;1912751;73;25250;-85
2023/08/23 10:42:16;;;;;;;7.70;1.70;;;21.70;99.90;;;;;;1937472;72;27013;-85
2023/08/23 10:45:10;;;;;;;5.13;1.70;;;21.70;99.90;;;;;;1905986;75;25756;-85
2023/08/23 10:48:00;;;;;;;5.70;1.60;;;21.40;99.90;;;;;;1885859;75;25247;-85
2023/08/23 10:50:50;;;;;;;7.40;1.80;;;21.30;99.90;;;;;;1907018;73;26120;-85
2023/08/23 10:53:39;;;;;;;6.23;1.90;;;21.50;99.90;;;;;;1891523;75;25813;-85
2023/08/23 10:59:12;;;;;;;5.47;1.70;;;21.60;99.90;;;;;;1969803;71;26938;-85
2023/08/23 11:02:01;;;;;;;11.13;2.17;;;21.50;99.90;;;;;;1944261;72;25206;-85
2023/08/23 11:04:49;;;;;;;4.37;1.63;;;21.20;99.90;;;;;;1905026;73;25231;-85
2023/08/23 11:07:39;;;;;;;5.70;1.60;;;21.30;99.90;;;;;;1912477;73;25314;-85
2023/08/23 11:10:28;;;;;;;7.47;2.00;;;21.50;99.90;;;;;;1900579;74;25252;-85
2023/08/23 11:13:17;;;;;;;6.23;1.70;;;21.40;99.90;;;;;;1885041;75;25190;-85
2023/08/23 11:16:07;;;;;;;6.30;1.87;;;21.60;99.90;;;;;;1910395;73;25347;-85
2023/08/23 11:18:56;;;;;;;3.17;1.70;;;21.80;99.90;;;;;;1888206;73;25273;-85
2023/08/23 11:24:38;;;;;;;7.80;1.90;;;21.90;99.90;;;;;;1942849;71;26942;-84
2023/08/23 11:27:27;;;;;;;9.87;1.90;;;22.00;99.90;;;;;;1921835;73;25761;-87
2023/08/23 11:30:16;;;;;;;5.70;1.70;;;22.10;99.90;;;;;;1923346;73;26528;-87
2023/08/23 11:33:06;;;;;;;10.40;1.87;;;22.00;99.90;;;;;;1887559;75;25298;-87
2023/08/23 11:35:56;;;;;;;9.10;1.80;;;21.70;99.90;;;;;;1900634;75;25249;-87
2023/08/23 11:38:47;;;;;;;7.23;2.20;;;21.70;99.90;;;;;;1876855;75;25174;-87
2023/08/23 11:41:35;;;;;;;5.03;1.70;;;21.60;99.90;;;;;;1883828;75;25771;-85
2023/08/23 11:44:24;;;;;;;6.97;1.90;;;21.50;99.90;;;;;;1860942;76;25277;-85
2023/08/23 11:47:13;;;;;;;4.53;1.87;;;21.30;99.90;;;;;;1870212;76;25699;-84
2023/08/23 11:52:42;;;;;;;4.73;1.90;;;21.10;99.90;;;;;;1947287;72;27527;-85
2023/08/23 11:55:33;;;;;;;7.47;1.80;;;20.90;99.90;;;;;;1885702;75;25279;-85
2023/08/23 11:58:21;;;;;;;9.07;1.80;;;21.00;99.90;;;;;;1886658;75;25279;-86
2023/08/23 12:03:59;;;;;;;5.43;1.67;;;21.20;99.90;;;;;;1942137;72;26843;-86
2023/08/23 12:06:47;;;;;;;8.33;2.20;;;21.10;99.90;;;;;;1943452;73;25246;-85
2023/08/23 12:12:23;;;;;;;4.57;1.80;;;21.10;99.90;;;;;;1940604;72;26988;-85
2023/08/23 12:15:13;;;;;;;7.00;2.30;;;20.80;99.90;;;;;;1895896;75;25750;-87
2023/08/23 12:18:02;;;;;;;7.17;2.00;;;20.40;99.90;;;;;;1895871;73;25221;-85
2023/08/23 12:20:50;;;;;;;7.83;2.00;;;20.40;99.90;;;;;;1874847;75;25163;-86
2023/08/23 12:23:39;;;;;;;7.20;2.03;;;20.60;99.90;;;;;;1892988;75;25900;-85
2023/08/23 12:26:28;;;;;;;8.57;2.03;;;20.70;99.90;;;;;;1897167;73;25250;-86
2023/08/23 12:29:17;;;;;;;6.47;2.23;;;20.70;99.90;;;;;;1899648;75;25236;-87
2023/08/23 12:32:07;;;;;;;7.93;2.07;;;20.40;99.90;;;;;;1894007;75;25216;-86
2023/08/23 12:34:56;;;;;;;4.27;1.93;;;20.30;99.90;;;;;;1895121;73;25244;-86
2023/08/23 12:37:45;;;;;;;4.83;1.90;;;20.20;99.90;;;;;;1893042;75;25746;-86
2023/08/23 12:40:34;;;;;;;6.10;2.30;;;20.20;99.90;;;;;;1879395;75;25248;-86
2023/08/23 12:43:23;;;;;;;3.97;1.90;;;20.40;99.90;;;;;;1865986;76;25198;-86
2023/08/23 12:46:12;;;;;;;5.77;2.07;;;20.50;99.90;;;;;;1862009;76;25272;-86
2023/08/23 12:51:48;;;;;;;6.27;1.77;;;20.40;99.90;;;;;;1942787;72;27054;-85
2023/08/23 12:57:25;;;;;;;5.13;1.87;;;20.50;99.90;;;;;;1952377;72;28135;-85
2023/08/23 13:00:19;;;;;;;5.07;1.97;;;20.50;99.90;;;;;;1931547;73;25237;-86
2023/08/23 13:03:08;;;;;;;4.43;2.10;;;20.40;99.90;;;;;;1939648;72;25524;-85
2023/08/23 13:05:57;;;;;;;7.80;2.10;;;20.30;99.90;;;;;;1934256;73;25214;-85
2023/08/23 13:08:45;;;;;;;4.00;1.70;;;20.40;99.90;;;;;;1923478;73;25277;-85
2023/08/23 13:11:36;;;;;;;5.37;1.90;;;20.40;99.90;;;;;;1946794;73;25212;-85
2023/08/23 13:17:07;;;;;;;4.83;1.80;;;20.50;99.90;;;;;;1899347;74;27136;-85
2023/08/23 13:19:55;;;;;;;8.17;2.17;;;20.60;99.90;;;;;;1825918;76;25275;-85
2023/08/23 13:22:44;;;;;;;5.20;1.70;;;20.60;99.90;;;;;;1839426;77;25222;-85
2023/08/23 13:28:14;;;;;;;7.50;2.23;;;20.70;99.90;;;;;;1932916;72;26980;-85
2023/08/23 13:31:04;;;;;;;4.73;1.90;;;20.80;99.90;;;;;;1908934;73;25278;-85
2023/08/23 13:33:53;;;;;;;4.33;2.10;;;20.70;99.90;;;;;;1906318;74;25237;-85
2023/08/23 13:36:43;;;;;;;6.37;1.93;;;20.80;99.90;;;;;;1908872;74;25254;-85
2023/08/23 13:39:31;;;;;;;6.03;1.73;;;20.60;99.90;;;;;;1903009;74;25297;-85
2023/08/23 13:45:01;;;;;;;6.77;2.30;;;20.40;99.90;;;;;;1945456;71;26964;-85
2023/08/23 13:47:49;;;;;;;4.57;2.07;;;20.30;99.90;;;;;;1937363;73;25223;-85
2023/08/23 13:50:38;;;;;;;8.30;2.30;;;20.10;99.90;;;;;;1936478;72;25287;-85
2023/08/23 13:56:07;;;;;;;10.50;2.50;;;20.20;99.90;;;;;;1943363;72;27430;-85
2023/08/23 13:58:57;;;;;;;12.03;2.37;;;20.20;99.90;;;;;;1927023;72;25237;-85
2023/08/23 14:01:47;;;;;;;5.50;2.30;;;20.20;99.90;;;;;;1918915;73;25211;-85
2023/08/23 14:07:16;;;;;;;3.53;1.80;;;20.50;99.90;;;;;;1931003;72;27062;-85
2023/08/23 14:12:46;;;;;;;4.40;1.60;;;21.30;99.90;;;;;;1954183;72;26930;-85
2023/08/23 14:18:13;;;;;;;4.40;1.70;;;21.10;99.90;;;;;;1938391;72;26992;-85
2023/08/23 14:21:04;;;;;;;7.90;1.93;;;20.90;99.90;;;;;;1889803;74;25786;-85
2023/08/23 14:23:53;;;;;;;5.67;1.70;;;20.60;99.90;;;;;;1911882;74;25290;-86
2023/08/23 14:29:21;;;;;;;7.27;1.70;;;20.50;99.90;;;;;;1926112;72;27008;-85
2023/08/23 14:32:11;;;;;;;4.13;1.70;;;20.50;99.90;;;;;;1906266;73;25264;-85
2023/08/23 14:35:00;;;;;;;4.13;1.70;;;20.40;99.90;;;;;;1901420;73;25258;-85
2023/08/23 14:37:49;;;;;;;5.63;1.63;;;20.40;99.90;;;;;;1898192;73;25656;-85
2023/08/23 14:40:37;;;;;;;7.17;1.87;;;20.30;99.90;;;;;;1914480;73;25215;-85
2023/08/23 14:46:09;;;;;;;3.87;1.30;;;20.30;99.90;;;;;;1947925;72;27065;-85
2023/08/23 14:48:58;;;;;;;4.30;1.33;;;20.40;99.90;;;;;;1932193;73;25352;-85
2023/08/23 14:51:46;;;;;;;2.17;1.30;;;20.50;99.90;;;;;;1919749;73;25212;-85
2023/08/23 14:54:35;;;;;;;1.70;1.33;;;20.60;99.90;;;;;;1916582;73;25254;-85
2023/08/23 14:57:24;;;;;;;3.23;1.40;;;20.50;99.90;;;;;;1915862;73;25249;-85
2023/08/23 15:00:15;;;;;;;4.10;1.57;;;20.40;99.90;;;;;;1917217;73;25170;-85
2023/08/23 15:03:04;;;;;;;3.57;1.40;;;20.40;99.90;;;;;;1916187;73;25295;-85
2023/08/23 15:05:55;;;;;;;9.53;1.63;;;20.20;99.90;;;;;;1922639;73;25170;-85
2023/08/23 15:08:44;;;;;;;3.13;1.40;;;20.10;99.90;;;;;;1916281;73;25269;-85
2023/08/23 15:11:33;;;;;;;3.57;1.80;;;20.10;99.90;;;;;;1917050;73;25240;-85
2023/08/23 15:14:21;;;;;;;4.77;1.40;;;20.20;99.90;;;;;;1926316;73;25705;-85
2023/08/23 15:17:10;;;;;;;2.80;1.60;;;20.30;99.90;;;;;;1915646;73;25271;-85
2023/08/23 15:19:58;;;;;;;5.27;1.70;;;20.20;99.90;;;;;;1920776;73;25268;-87
2023/08/23 15:22:47;;;;;;;5.83;1.60;;;20.10;99.90;;;;;;1915876;75;25259;-87
2023/08/23 15:25:37;;;;;;;3.97;1.43;;;20.20;99.90;;;;;;1916691;73;25250;-87
2023/08/23 15:28:37;;;;;;;3.20;1.50;;;20.30;99.90;;;;;;1916141;75;25803;-87
2023/08/23 15:31:26;;;;;;;7.27;1.60;;;20.30;99.90;;;;;;1916046;73;25249;-87
2023/08/23 15:34:15;;;;;;;3.57;1.80;;;20.30;99.90;;;;;;1917715;73;25318;-87
2023/08/23 15:37:11;;;;;;;5.10;1.70;;;20.40;99.90;;;;;;1930776;73;25256;-87
2023/08/23 15:39:59;;;;;;;3.53;1.43;;;20.40;99.90;;;;;;1917248;73;25369;-87
2023/08/23 15:42:48;;;;;;;2.73;1.50;;;20.20;99.90;;;;;;1908596;75;25314;-87
2023/08/23 15:45:37;;;;;;;4.27;1.70;;;20.20;99.90;;;;;;1886112;74;25338;-87
2023/08/23 15:48:25;;;;;;;2.73;1.43;;;20.30;99.90;;;;;;1874892;75;25223;-87
2023/08/23 15:51:14;;;;;;;3.73;1.60;;;20.20;99.90;;;;;;1906850;74;25247;-87
2023/08/23 15:54:03;;;;;;;4.63;1.73;;;20.10;99.90;;;;;;1901476;74;25208;-87
2023/08/23 15:59:34;;;;;;;4.17;1.70;;;19.80;99.90;;;;;;1959119;72;27105;-87
2023/08/23 16:02:24;;;;;;;4.57;1.60;;;19.80;99.90;;;;;;1921227;73;25718;-87
2023/08/23 16:05:12;;;;;;;2.87;1.60;;;19.70;99.90;;;;;;1924338;73;25681;-87
2023/08/23 16:10:42;;;;;;;1.77;1.23;;;19.90;99.90;;;;;;1912766;72;27113;-87
2023/08/23 16:16:16;;;;;;;4.30;1.27;;;19.80;99.90;;;;;;1957000;72;26818;-87
2023/08/23 16:19:04;;;;;;;1.90;1.20;;;19.60;99.90;;;;;;1952698;72;25212;-87
2023/08/23 16:21:54;;;;;;;5.40;1.37;;;19.50;99.90;;;;;;1978533;72;25140;-87
2023/08/23 16:24:44;;;;;;;1.80;1.20;;;19.40;99.90;;;;;;1948057;72;25162;-87
2023/08/23 16:27:33;;;;;;;2.90;1.30;;;19.40;99.90;;;;;;1958778;72;25693;-87
2023/08/23 16:30:21;;;;;;;4.73;1.53;;;19.40;99.90;;;;;;1964555;72;25721;-85
2023/08/23 16:33:11;;;;;;;2.43;1.40;;;19.40;99.90;;;;;;1984190;71;25663;-87
2023/08/23 16:36:01;;;;;;;4.10;1.67;;;19.30;99.90;;;;;;1967024;72;25242;-87
2023/08/23 16:38:51;;;;;;;4.67;1.70;;;19.30;99.90;;;;;;1972160;72;25317;-87
2023/08/23 16:41:39;;;;;;;3.87;1.70;;;19.20;99.90;;;;;;1949172;72;25799;-87
2023/08/23 16:44:28;;;;;;;4.13;1.77;;;19.30;99.90;;;;;;1961121;72;25227;-87
2023/08/23 16:47:17;;;;;;;3.67;1.43;;;19.30;99.90;;;;;;1949563;72;25223;-87
2023/08/23 16:50:06;;;;;;;3.73;1.63;;;19.30;99.90;;;;;;1949994;72;25158;-87
2023/08/23 16:52:55;;;;;;;4.53;1.80;;;19.20;99.90;;;;;;1959917;72;25285;-87
2023/08/23 16:58:24;;;;;;;4.30;1.90;;;19.00;99.90;;;;;;1937531;72;27054;-87
2023/08/23 17:01:12;;;;;;;4.30;1.80;;;19.00;99.90;;;;;;1884324;75;25269;-87
2023/08/23 17:04:01;;;;;;;4.97;1.80;;;19.00;99.90;;;;;;1900424;75;25244;-87
2023/08/23 17:06:51;;;;;;;4.10;1.90;;;18.90;99.90;;;;;;1884475;75;25272;-87
2023/08/23 17:09:43;;;;;;;6.30;2.17;;;18.90;99.90;;;;;;1907406;75;25306;-87